createdAt,value
2023-01-04T13:41:20.247Z,9.40
2023-01-04T13:44:04.274Z,9.40
2023-01-04T13:46:32.722Z,9.50
2023-01-04T13:49:03.877Z,9.50
2023-01-04T13:51:37.896Z,9.50
2023-01-04T13:54:08.447Z,9.50
2023-01-04T13:56:37.203Z,9.60
2023-01-04T13:59:05.543Z,9.60
2023-01-04T14:01:36.525Z,9.60
2023-01-04T14:04:08.530Z,9.70
2023-01-04T14:06:44.317Z,9.70
2023-01-04T14:09:18.364Z,9.70
2023-01-04T14:12:07.258Z,9.70
2023-01-04T14:14:41.288Z,9.70
2023-01-04T14:17:30.560Z,9.80
2023-01-04T14:20:01.968Z,9.80
2023-01-04T14:22:41.551Z,9.90
2023-01-04T14:25:48.594Z,9.90
2023-01-04T14:28:29.334Z,9.90
2023-01-04T14:31:20.425Z,9.90
2023-01-04T14:33:50.891Z,9.90
2023-01-04T14:36:26.682Z,9.90
2023-01-04T14:39:12.648Z,9.80
2023-01-04T14:41:43.085Z,9.90
2023-01-04T14:44:14.176Z,9.90
2023-01-04T14:46:46.801Z,9.90
2023-01-04T14:49:15.902Z,10.00
2023-01-04T14:51:48.532Z,10.00
2023-01-04T14:54:24.235Z,10.10
2023-01-04T14:56:54.288Z,10.10
2023-01-04T14:59:24.387Z,10.20
2023-01-04T15:01:53.577Z,10.30
2023-01-04T15:04:22.477Z,10.30
2023-01-04T15:06:54.221Z,10.40
2023-01-04T15:09:23.058Z,10.40
2023-01-04T15:11:51.552Z,10.40
2023-01-04T15:14:20.301Z,10.50
2023-01-04T15:16:49.204Z,10.50
2023-01-04T15:19:17.533Z,10.60
2023-01-04T15:21:45.918Z,10.60
2023-01-04T15:24:15.685Z,10.60
2023-01-04T15:26:44.488Z,10.60
2023-01-04T15:29:12.817Z,10.60
2023-01-04T15:31:41.626Z,10.60
2023-01-04T15:34:10.876Z,10.70
2023-01-04T15:36:41.009Z,10.60
2023-01-04T15:39:13.243Z,10.70
2023-01-04T15:42:00.805Z,10.70
2023-01-04T15:44:29.202Z,10.70
2023-01-04T15:46:59.248Z,10.70
2023-01-04T15:49:30.407Z,10.70
2023-01-04T15:51:58.841Z,10.70
2023-01-04T15:54:27.262Z,10.80
2023-01-04T15:56:57.280Z,10.80
2023-01-04T15:59:25.877Z,10.80
2023-01-04T16:01:54.402Z,10.80
2023-01-04T16:04:22.804Z,10.80
2023-01-04T16:06:51.287Z,10.90
2023-01-04T16:09:19.633Z,10.90
2023-01-04T16:12:05.659Z,10.90
2023-01-04T16:14:35.294Z,10.90
2023-01-04T16:17:03.702Z,10.90
2023-01-04T16:19:34.088Z,10.90
2023-01-04T16:22:02.496Z,10.90
2023-01-04T16:25:09.183Z,10.90
2023-01-04T16:27:19.347Z,10.90
2023-01-04T16:29:50.341Z,10.90
2023-01-04T16:32:19.132Z,10.90
2023-01-04T16:34:47.563Z,10.90
2023-01-04T16:37:15.862Z,10.90
2023-01-04T16:42:32.921Z,10.90
2023-01-04T16:45:02.510Z,10.90
2023-01-04T16:47:38.475Z,10.90
2023-01-04T16:50:07.757Z,10.90
2023-01-04T16:52:36.023Z,10.90
2023-01-04T16:55:04.890Z,11.00
2023-01-04T16:57:33.664Z,11.00
2023-01-04T17:00:04.854Z,11.10
2023-01-04T17:02:33.280Z,11.10
2023-01-04T17:05:01.695Z,11.00
2023-01-04T17:07:32.919Z,11.10
2023-01-04T17:10:01.833Z,11.10
2023-01-04T17:12:47.407Z,11.10
2023-01-04T17:18:07.875Z,11.00
2023-01-04T17:20:37.808Z,11.00
2023-01-04T17:23:06.318Z,11.00
2023-01-04T17:25:34.688Z,11.00
2023-01-04T17:28:02.989Z,11.00
2023-01-04T17:30:32.819Z,11.00
2023-01-04T17:33:01.091Z,11.10
2023-01-04T17:35:29.380Z,11.10
2023-01-04T17:37:57.805Z,11.10
2023-01-04T17:40:26.125Z,11.00
2023-01-04T17:42:54.475Z,11.00
2023-01-04T17:45:23.404Z,11.00
2023-01-04T17:47:53.471Z,11.00
2023-01-04T17:50:22.508Z,11.00
2023-01-04T17:52:51.773Z,11.00
2023-01-04T17:55:21.706Z,11.00
2023-01-04T17:57:50.034Z,10.90
2023-01-04T18:00:21.638Z,10.80
2023-01-04T18:02:50.228Z,10.90
2023-01-04T18:05:19.821Z,10.90
2023-01-04T18:07:48.334Z,11.00
2023-01-04T18:10:33.197Z,11.10
2023-01-04T18:13:05.238Z,11.10
2023-01-04T18:15:36.187Z,11.20
2023-01-04T18:18:12.344Z,11.20
2023-01-04T18:20:48.945Z,11.20
2023-01-04T18:23:25.444Z,11.20
2023-01-04T18:25:54.469Z,11.20
2023-01-04T18:28:23.708Z,11.20
2023-01-04T18:30:52.265Z,11.20
2023-01-04T18:33:20.940Z,11.20
2023-01-04T18:35:50.473Z,11.30
2023-01-04T18:38:18.816Z,11.30
2023-01-04T18:40:47.806Z,11.40
2023-01-04T18:43:16.173Z,11.40
2023-01-04T18:45:44.553Z,11.50
2023-01-04T18:48:12.942Z,11.60
2023-01-04T18:50:41.357Z,11.60
2023-01-04T18:53:11.074Z,11.70
2023-01-04T18:55:39.931Z,11.70
2023-01-04T18:58:08.372Z,11.70
2023-01-04T19:00:36.668Z,11.80
2023-01-04T19:03:05.372Z,11.70
2023-01-04T19:05:33.734Z,11.70
2023-01-04T19:08:02.215Z,11.80
2023-01-04T19:10:31.908Z,11.80
2023-01-04T19:13:00.411Z,11.90
2023-01-04T19:15:29.994Z,11.90
2023-01-04T19:17:58.503Z,11.90
2023-01-04T19:20:28.269Z,11.90
2023-01-04T19:22:56.687Z,11.90
2023-01-04T19:25:28.490Z,11.80
2023-01-04T19:27:58.616Z,11.90
2023-01-04T19:30:27.746Z,11.90
2023-01-04T19:32:56.372Z,12.00
2023-01-04T19:35:24.882Z,12.00
2023-01-04T19:37:53.645Z,12.00
2023-01-04T19:40:22.426Z,12.00
2023-01-04T19:42:51.033Z,11.90
2023-01-04T19:45:20.589Z,11.90
2023-01-04T19:47:51.648Z,11.80
2023-01-04T19:50:20.228Z,11.80
2023-01-04T19:52:48.544Z,11.80
2023-01-04T19:55:17.062Z,11.70
2023-01-04T19:57:47.113Z,11.80
2023-01-04T20:00:16.309Z,11.80
2023-01-04T20:02:47.156Z,11.80
2023-01-04T20:05:15.772Z,11.90
2023-01-04T20:07:44.931Z,11.90
2023-01-04T20:10:14.624Z,12.00
2023-01-04T20:12:43.865Z,12.00
2023-01-04T20:15:13.706Z,12.00
2023-01-04T20:17:42.425Z,11.90
2023-01-04T20:20:12.543Z,12.00
2023-01-04T20:22:41.446Z,11.90
2023-01-04T20:25:10.334Z,11.90
2023-01-04T20:27:39.171Z,11.90
2023-01-04T20:30:09.788Z,11.90
2023-01-04T20:32:38.694Z,11.80
2023-01-04T20:35:07.985Z,11.80
2023-01-04T20:37:37.643Z,11.80
2023-01-04T20:40:07.569Z,11.80
2023-01-04T20:42:53.371Z,11.80
2023-01-04T20:45:21.771Z,11.80
2023-01-04T20:47:49.978Z,11.70
2023-01-04T20:50:18.913Z,11.80
2023-01-04T20:52:48.587Z,11.80
2023-01-04T20:55:17.656Z,11.80
2023-01-04T20:57:46.280Z,11.90
2023-01-04T21:00:16.002Z,11.90
2023-01-04T21:02:44.825Z,11.90
2023-01-04T21:05:13.846Z,11.90
2023-01-04T21:07:42.873Z,12.00
2023-01-04T21:10:12.659Z,12.00
2023-01-04T21:12:41.058Z,12.00
2023-01-04T21:15:10.657Z,12.10
2023-01-04T21:17:39.079Z,12.00
2023-01-04T21:20:08.623Z,12.00
2023-01-04T21:22:36.939Z,12.00
2023-01-04T21:25:06.203Z,12.00
2023-01-04T21:27:35.866Z,11.90
2023-01-04T21:30:04.687Z,12.00
2023-01-04T21:32:32.976Z,12.00
2023-01-04T21:35:01.673Z,11.90
2023-01-04T21:37:30.559Z,12.00
2023-01-04T21:39:58.997Z,12.00
2023-01-04T21:42:27.339Z,12.10
2023-01-04T21:44:57.288Z,12.10
2023-01-04T21:47:25.576Z,12.00
2023-01-04T21:49:53.957Z,12.00
2023-01-04T21:52:22.488Z,12.00
2023-01-04T21:54:50.990Z,12.00
2023-01-04T21:57:19.741Z,12.00
2023-01-04T21:59:48.598Z,12.00
2023-01-04T22:02:20.265Z,12.00
2023-01-04T22:04:48.971Z,12.00
2023-01-04T22:07:17.353Z,12.00
2023-01-04T22:09:45.730Z,12.00
2023-01-04T22:12:14.024Z,12.00
2023-01-04T22:14:42.512Z,12.10
2023-01-04T22:17:10.984Z,12.10
2023-01-04T22:19:40.564Z,12.00
2023-01-04T22:22:09.032Z,12.10
2023-01-04T22:24:38.191Z,12.00
2023-01-04T22:27:06.974Z,12.00
2023-01-04T22:29:35.381Z,11.90
2023-01-04T22:32:06.898Z,12.00
2023-01-04T22:34:35.360Z,12.00
2023-01-04T22:37:05.142Z,12.00
2023-01-04T22:39:33.501Z,12.10
2023-01-04T22:42:01.963Z,12.10
2023-01-04T22:44:30.429Z,12.00
2023-01-04T22:46:59.075Z,12.00
2023-01-04T22:49:27.644Z,12.00
2023-01-04T22:51:57.188Z,12.00
2023-01-04T22:54:26.830Z,12.00
2023-01-04T22:56:55.167Z,11.90
2023-01-04T22:59:23.641Z,12.00
2023-01-04T23:01:52.078Z,12.00
2023-01-04T23:04:21.166Z,11.90
2023-01-04T23:06:49.720Z,11.90
2023-01-04T23:09:19.673Z,12.00
2023-01-04T23:11:49.311Z,11.90
2023-01-04T23:14:18.586Z,11.90
2023-01-04T23:16:47.185Z,11.80
2023-01-04T23:19:15.730Z,11.70
2023-01-04T23:21:44.223Z,11.80
2023-01-04T23:24:14.712Z,11.80
2023-01-04T23:26:44.195Z,11.80
2023-01-04T23:29:14.189Z,11.90
2023-01-04T23:31:42.613Z,11.90
2023-01-04T23:34:13.471Z,11.90
2023-01-04T23:36:43.450Z,11.90
2023-01-04T23:39:15.137Z,12.00
2023-01-04T23:41:47.216Z,12.00
2023-01-04T23:44:20.288Z,12.00
2023-01-04T23:46:53.186Z,12.00
2023-01-04T23:49:21.866Z,11.90
2023-01-04T23:51:50.262Z,11.90
2023-01-04T23:54:19.723Z,11.90
2023-01-04T23:56:47.990Z,11.90
2023-01-04T23:59:18.158Z,11.90
